Time;durP1;ratioP1;P1;durP2;ratioP2;P2;SDS_P1;SDS_P2;PMS_P1;PMS_P2;Temp;Humidity;BMP_temperature;BMP_pressure;BME280_temperature;BME280_humidity;BME280_pressure;Samples;Min_cycle;Max_cycle;Signal;HPM_P1;HPM_P2
2022/06/27 00:02:15;;;;;;;5.50;4.30;;;;;;;14.85;100.00;95219.06;5042724;28;20035;-71
2022/06/27 00:04:42;;;;;;;8.68;4.50;;;;;;;14.88;100.00;95224.59;5043516;28;20595;-71
2022/06/27 00:07:11;;;;;;;5.68;4.30;;;;;;;14.83;100.00;95226.41;5026409;28;20722;-71
2022/06/27 00:09:39;;;;;;;9.68;5.38;;;;;;;14.79;100.00;95220.06;5039504;28;20063;-71
2022/06/27 00:12:07;;;;;;;9.75;4.50;;;;;;;14.85;100.00;95225.09;5037592;28;20064;-71
2022/06/27 00:14:34;;;;;;;7.03;4.50;;;;;;;14.94;100.00;95228.06;5038474;28;20067;-71
2022/06/27 00:17:01;;;;;;;9.35;4.80;;;;;;;14.98;100.00;95229.19;5042221;28;20116;-71
2022/06/27 00:19:28;;;;;;;10.23;5.03;;;;;;;14.98;100.00;95218.69;5039791;28;20131;-71
2022/06/27 00:21:55;;;;;;;10.75;4.93;;;;;;;14.98;100.00;95218.69;5044379;28;20041;-71
2022/06/27 00:24:22;;;;;;;6.82;4.65;;;;;;;15.01;100.00;95218.16;5046838;28;20040;-71
2022/06/27 00:26:49;;;;;;;7.30;4.65;;;;;;;14.97;100.00;95224.97;5067450;28;20033;-71
2022/06/27 00:29:16;;;;;;;6.88;4.20;;;;;;;14.89;100.00;95220.16;5046171;28;20188;-71
2022/06/27 00:31:43;;;;;;;6.85;4.38;;;;;;;14.90;100.00;95217.28;5053140;28;20040;-70
2022/06/27 00:34:10;;;;;;;4.68;4.05;;;;;;;14.84;100.00;95223.53;5069048;28;20033;-71
2022/06/27 00:36:37;;;;;;;8.95;4.57;;;;;;;14.73;100.00;95221.84;5055612;28;20115;-71
2022/06/27 00:39:06;;;;;;;17.23;4.82;;;;;;;14.70;100.00;95217.88;5057020;28;20040;-72
2022/06/27 00:41:33;;;;;;;6.72;5.07;;;;;;;14.64;100.00;95220.69;5072191;28;20058;-72
2022/06/27 00:44:00;;;;;;;7.25;4.85;;;;;;;14.50;100.00;95217.66;5050746;28;20033;-71
2022/06/27 00:46:29;;;;;;;7.78;4.20;;;;;;;14.34;100.00;95199.13;5053971;28;20055;-71
2022/06/27 00:48:57;;;;;;;7.63;4.50;;;;;;;14.45;100.00;95214.97;5043852;28;20106;-71
2022/06/27 00:51:24;;;;;;;11.57;5.22;;;;;;;14.48;100.00;95212.66;5048862;28;20040;-71
2022/06/27 00:53:53;;;;;;;6.20;4.22;;;;;;;14.46;100.00;95200.84;5055666;28;20040;-71
2022/06/27 00:56:21;;;;;;;9.98;5.28;;;;;;;14.45;100.00;95199.25;5071422;28;20040;-71
2022/06/27 00:58:48;;;;;;;7.25;5.20;;;;;;;14.46;100.00;95206.09;5053575;28;20592;-71
2022/06/27 01:01:15;;;;;;;9.95;4.95;;;;;;;14.43;100.00;95209.19;5074692;28;20055;-71
2022/06/27 01:03:42;;;;;;;13.20;4.82;;;;;;;14.39;100.00;95210.72;5056135;28;20040;-71
2022/06/27 01:06:08;;;;;;;8.70;5.13;;;;;;;14.42;100.00;95220.69;5038356;28;20651;-71
2022/06/27 01:08:36;;;;;;;12.75;5.05;;;;;;;14.48;100.00;95219.72;5072276;28;20047;-71
2022/06/27 01:11:03;;;;;;;11.98;5.03;;;;;;;14.42;100.00;95215.44;5050452;28;20044;-71
2022/06/27 01:13:31;;;;;;;12.70;5.10;;;;;;;14.28;100.00;95205.34;5041422;28;20061;-71
2022/06/27 01:15:58;;;;;;;9.00;5.15;;;;;;;14.31;100.00;95204.06;5040314;28;20048;-72
2022/06/27 01:18:25;;;;;;;8.23;5.35;;;;;;;14.25;100.00;95199.81;5065202;28;20184;-72
2022/06/27 01:20:52;;;;;;;12.18;5.43;;;;;;;14.36;100.00;95204.13;5052387;28;20047;-70
2022/06/27 01:23:19;;;;;;;6.82;5.13;;;;;;;14.41;100.00;95213.88;5034647;28;20905;-71
2022/06/27 01:25:47;;;;;;;13.75;5.57;;;;;;;14.42;100.00;95211.03;5061749;28;20049;-72
2022/06/27 01:28:14;;;;;;;7.53;5.38;;;;;;;14.40;100.00;95214.91;5050149;28;20047;-71
2022/06/27 01:30:41;;;;;;;14.70;5.68;;;;;;;14.07;100.00;95177.34;5048362;28;20044;-71
2022/06/27 01:33:08;;;;;;;12.60;5.25;;;;;;;14.29;100.00;95214.78;5047320;28;20105;-71
2022/06/27 01:35:37;;;;;;;8.65;4.82;;;;;;;14.20;100.00;95211.00;5048981;28;20052;-71
2022/06/27 01:38:05;;;;;;;11.10;5.88;;;;;;;14.18;100.00;95220.94;5055883;28;20045;-71
2022/06/27 01:40:33;;;;;;;7.03;4.10;;;;;;;14.21;100.00;95224.91;5057242;28;20054;-71
2022/06/27 01:43:00;;;;;;;5.22;4.20;;;;;;;14.10;100.00;95218.75;5077060;28;20047;-72
2022/06/27 01:45:34;;;;;;;5.90;4.50;;;;;;;14.07;100.00;95227.88;5066216;28;20138;-70
2022/06/27 01:48:02;;;;;;;6.18;4.43;;;;;;;13.93;100.00;95221.41;5049313;28;20052;-71
2022/06/27 01:50:31;;;;;;;6.53;4.63;;;;;;;13.90;100.00;95230.56;5045241;28;20122;-71
2022/06/27 01:53:00;;;;;;;7.18;4.65;;;;;;;13.64;100.00;95199.81;5044256;28;20044;-71
2022/06/27 01:55:27;;;;;;;10.98;5.32;;;;;;;13.82;100.00;95233.56;5042043;28;20514;-71
2022/06/27 01:57:55;;;;;;;16.30;4.97;;;;;;;13.80;100.00;95229.63;5046597;28;20037;-71
2022/06/27 02:00:22;;;;;;;9.25;5.15;;;;;;;13.79;100.00;95228.81;5063574;28;20051;-71
2022/06/27 02:02:59;;;;;;;6.38;5.00;;;;;;;13.74;100.00;95226.16;5052284;28;20059;-71
2022/06/27 02:05:33;;;;;;;9.20;5.45;;;;;;;13.63;100.00;95230.44;5044247;28;20048;-71
2022/06/27 02:08:02;;;;;;;6.47;4.18;;;;;;;13.52;100.00;95229.50;5055207;28;20028;-72
2022/06/27 02:10:30;;;;;;;7.75;5.43;;;;;;;13.52;100.00;95234.75;5049486;28;20044;-72
2022/06/27 02:12:58;;;;;;;11.27;5.50;;;;;;;13.43;100.00;95225.69;5044575;28;20048;-72
2022/06/27 02:15:25;;;;;;;10.45;5.55;;;;;;;13.45;100.00;95234.09;5035770;28;20062;-72
2022/06/27 02:17:52;;;;;;;10.38;5.63;;;;;;;13.49;100.00;95243.06;5042097;28;20089;-72
2022/06/27 02:20:22;;;;;;;14.63;6.50;;;;;;;13.53;100.00;95241.53;5044079;28;20043;-71
2022/06/27 02:22:49;;;;;;;12.20;5.32;;;;;;;13.62;100.00;95249.00;5044880;28;20044;-71
2022/06/27 02:25:16;;;;;;;10.00;6.13;;;;;;;13.57;100.00;95242.63;5047214;28;20142;-72
2022/06/27 02:27:45;;;;;;;11.90;6.70;;;;;;;13.65;100.00;95253.72;5037459;28;20059;-72
2022/06/27 02:30:14;;;;;;;12.95;5.47;;;;;;;13.64;100.00;95249.56;5043223;28;20044;-72
2022/06/27 02:32:41;;;;;;;14.77;6.32;;;;;;;13.47;100.00;95236.47;5048693;28;20045;-71
2022/06/27 02:35:08;;;;;;;11.23;6.68;;;;;;;13.53;100.00;95261.69;5065714;28;20070;-71
2022/06/27 02:37:36;;;;;;;15.35;6.45;;;;;;;13.55;100.00;95255.16;5043351;28;20059;-71
2022/06/27 02:40:05;;;;;;;7.60;5.20;;;;;;;13.54;100.00;95256.22;5053877;28;20051;-71
2022/06/27 02:42:34;;;;;;;11.88;6.53;;;;;;;13.55;100.00;95254.38;5062937;28;20108;-71
2022/06/27 02:45:09;;;;;;;8.65;4.93;;;;;;;13.53;100.00;95256.47;5089112;28;20039;-71
2022/06/27 02:47:38;;;;;;;10.18;5.57;;;;;;;13.57;100.00;95265.41;5064055;28;20075;-72
2022/06/27 02:50:06;;;;;;;7.18;5.28;;;;;;;13.53;100.00;95267.72;5042311;28;20053;-71
2022/06/27 02:52:44;;;;;;;11.70;5.28;;;;;;;13.56;100.00;95269.84;5044300;28;20041;-71
2022/06/27 02:55:17;;;;;;;8.23;5.47;;;;;;;13.53;100.00;95267.72;5047800;28;20098;-72
2022/06/27 02:57:59;;;;;;;8.25;5.10;;;;;;;13.56;100.00;95266.47;5045195;28;20225;-72
2022/06/27 03:00:28;;;;;;;13.52;5.95;;;;;;;13.56;100.00;95271.69;5048835;28;20063;-71
2022/06/27 03:03:03;;;;;;;10.70;6.18;;;;;;;13.61;100.00;95270.97;5044406;28;20033;-72
2022/06/27 03:06:01;;;;;;;;;;;;;;;13.62;100.00;95275.16;5044968;28;20055;-72
2022/06/27 03:08:39;;;;;;;8.20;5.05;;;;;;;13.58;100.00;95275.63;5046301;28;20425;-72
2022/06/27 03:11:18;;;;;;;16.98;5.65;;;;;;;13.53;100.00;95283.41;5054968;28;20095;-71
2022/06/27 03:13:48;;;;;;;8.38;4.93;;;;;;;13.55;100.00;95281.34;5049703;28;20123;-71
2022/06/27 03:16:16;;;;;;;13.43;5.05;;;;;;;13.49;100.00;95282.31;5049349;28;20445;-71
2022/06/27 03:18:45;;;;;;;12.27;4.88;;;;;;;13.45;100.00;95289.06;5064686;28;20048;-72
2022/06/27 03:21:30;;;;;;;10.32;4.97;;;;;;;13.50;100.00;95283.88;5047048;28;20115;-71
2022/06/27 03:24:00;;;;;;;9.27;5.57;;;;;;;13.47;100.00;95273.91;5048287;28;20051;-71
2022/06/27 03:26:29;;;;;;;9.98;5.82;;;;;;;13.57;100.00;95284.50;5054154;28;20172;-71
2022/06/27 03:28:56;;;;;;;6.72;5.05;;;;;;;13.58;100.00;95275.63;5048784;28;20035;-71
2022/06/27 03:31:23;;;;;;;7.88;5.90;;;;;;;13.65;100.00;95279.91;5050283;28;20671;-71
2022/06/27 03:33:50;;;;;;;8.55;5.80;;;;;;;13.73;100.00;95274.28;5050284;28;20159;-71
2022/06/27 03:36:29;;;;;;;13.85;7.00;;;;;;;13.82;100.00;95275.47;5042105;28;20058;-71
2022/06/27 03:38:56;;;;;;;9.20;5.85;;;;;;;13.87;100.00;95267.69;5043028;28;20048;-71
2022/06/27 03:41:25;;;;;;;10.25;6.18;;;;;;;13.86;100.00;95263.47;5045549;28;20624;-71
2022/06/27 03:43:52;;;;;;;12.27;6.80;;;;;;;13.92;100.00;95265.13;5050983;28;20039;-71
2022/06/27 03:46:20;;;;;;;12.02;5.72;;;;;;;14.01;100.00;95272.56;5040254;28;20044;-71
2022/06/27 03:51:47;;;;;;;8.48;5.38;;;;;;;14.26;100.00;95279.97;5056466;28;20057;-71
2022/06/27 03:54:15;;;;;;;7.03;5.97;;;;;;;14.32;100.00;95269.31;5042269;28;20050;-71
2022/06/27 03:56:43;;;;;;;10.20;5.68;;;;;;;14.46;100.00;95279.47;5046312;28;20060;-71
2022/06/27 03:59:10;;;;;;;15.02;6.57;;;;;;;14.57;100.00;95275.91;5047252;28;20052;-71
2022/06/27 04:01:38;;;;;;;16.13;6.05;;;;;;;14.71;100.00;95271.91;5033122;28;20040;-71
2022/06/27 04:04:06;;;;;;;13.95;7.90;;;;;;;14.85;100.00;95271.50;5043065;28;20059;-70
2022/06/27 04:06:33;;;;;;;11.40;6.47;;;;;;;14.94;100.00;95280.53;5043316;28;20789;-70
2022/06/27 04:09:05;;;;;;;16.90;8.20;;;;;;;15.10;100.00;95273.59;5033827;28;20044;-72
2022/06/27 04:11:32;;;;;;;12.88;8.07;;;;;;;15.25;100.00;95272.94;5044414;28;20040;-71
2022/06/27 04:13:59;;;;;;;10.10;6.70;;;;;;;15.30;100.00;95262.50;5058055;28;20044;-71
2022/06/27 04:16:45;;;;;;;13.48;6.78;;;;;;;15.54;100.00;95277.91;5068012;28;20072;-72
2022/06/27 04:19:21;;;;;;;9.57;6.38;;;;;;;15.64;100.00;95267.47;5047945;28;20777;-72
2022/06/27 04:22:00;;;;;;;7.68;5.57;;;;;;;15.59;100.00;95246.44;5064242;28;20805;-72
2022/06/27 04:24:46;;;;;;;9.10;6.13;;;;;;;15.89;100.00;95274.00;5050740;28;20169;-72
2022/06/27 04:27:20;;;;;;;7.53;6.32;;;;;;;15.93;100.00;95269.81;5032018;28;20049;-72
2022/06/27 04:29:50;;;;;;;7.68;6.03;;;;;;;16.15;100.00;95283.63;5046571;28;20059;-72
2022/06/27 04:32:18;;;;;;;7.65;6.72;;;;;;;16.19;100.00;95274.16;5046756;28;20765;-71
2022/06/27 04:34:46;;;;;;;13.43;7.43;;;;;;;16.37;100.00;95280.03;5031378;28;20032;-71
2022/06/27 04:37:13;;;;;;;11.20;7.10;;;;;;;16.47;100.00;95279.28;5051369;28;20135;-71
2022/06/27 04:40:01;;;;;;;17.08;6.97;;;;;;;16.42;100.00;95272.16;5037961;28;20104;-72
2022/06/27 04:42:30;;;;;;;11.98;6.38;;;;;;;16.54;100.00;95274.59;5037806;28;20526;-72
2022/06/27 04:44:57;;;;;;;8.05;6.15;;;;;;;16.71;100.00;95279.63;5036727;28;20053;-71
2022/06/27 04:47:26;;;;;;;15.20;8.00;;;;;;;16.81;100.00;95275.19;5040509;28;20040;-71
2022/06/27 04:50:18;;;;;;;14.93;7.43;;;;;;;16.95;100.00;95280.78;5032200;28;20120;-71
2022/06/27 04:52:46;;;;;;;15.57;7.75;;;;;;;17.06;100.00;95270.28;5060262;28;20041;-72
2022/06/27 04:55:15;;;;;;;18.65;8.98;;;;;;;17.11;100.00;95272.94;5033023;28;20129;-72
2022/06/27 04:57:45;;;;;;;18.73;9.98;;;;;;;17.17;100.00;95277.94;5038308;28;20044;-72
2022/06/27 05:00:15;;;;;;;14.48;9.13;;;;;;;17.29;100.00;95280.31;5025377;28;20488;-72
2022/06/27 05:03:06;;;;;;;19.98;9.70;;;;;;;17.43;100.00;95285.06;5058492;28;20105;-71
2022/06/27 05:05:37;;;;;;;13.13;7.57;;;;;;;17.52;100.00;95283.47;5037444;28;20067;-72
2022/06/27 05:08:04;;;;;;;13.27;7.95;;;;;;;17.65;100.00;95282.97;5035905;28;20040;-71
2022/06/27 05:10:38;;;;;;;9.27;7.45;;;;;;;17.76;100.00;95284.53;5033474;28;20186;-71
2022/06/27 05:13:05;;;;;;;13.18;7.70;;;;;;;17.84;100.00;95290.31;5062984;28;20055;-72
2022/06/27 05:15:32;;;;;;;12.25;8.88;;;;;;;17.96;100.00;95290.88;5064420;28;20124;-71
2022/06/27 05:17:59;;;;;;;20.55;8.00;;;;;;;17.94;100.00;95285.84;5044374;28;20135;-72
2022/06/27 05:20:28;;;;;;;12.63;7.90;;;;;;;18.08;100.00;95290.59;5044869;28;20044;-71
2022/06/27 05:22:55;;;;;;;14.35;9.27;;;;;;;18.12;100.00;95297.69;5057521;28;20697;-71
2022/06/27 05:25:22;;;;;;;13.27;8.80;;;;;;;18.12;100.00;95292.41;5050116;28;20040;-71
2022/06/27 05:27:49;;;;;;;12.32;8.35;;;;;;;18.26;100.00;95297.16;5039030;28;20040;-71
2022/06/27 05:30:16;;;;;;;11.68;9.32;;;;;;;18.34;100.00;95293.94;5040465;28;20874;-71
2022/06/27 05:32:44;;;;;;;10.32;9.05;;;;;;;18.40;100.00;95292.09;5036249;28;20048;-71
2022/06/27 05:35:12;;;;;;;12.52;8.63;;;;;;;18.47;100.00;95292.59;5041948;28;20502;-72
2022/06/27 05:37:39;;;;;;;12.25;9.68;;;;;;;18.45;100.00;95284.94;5036495;28;20047;-72
2022/06/27 05:40:08;;;;;;;12.93;9.57;;;;;;;18.46;100.00;95289.16;5044301;28;20136;-72
2022/06/27 05:42:35;;;;;;;14.65;9.45;;;;;;;18.47;100.00;95293.38;5052163;28;20048;-72
2022/06/27 05:45:03;;;;;;;13.25;9.40;;;;;;;18.62;100.00;95300.47;5035876;28;20115;-71
2022/06/27 05:47:36;;;;;;;;;;;;;;;18.66;100.00;95312.03;5053562;28;20044;-72
2022/06/27 05:50:14;;;;;;;11.98;9.05;;;;;;;18.74;100.00;95313.31;5048426;28;20295;-72
2022/06/27 05:52:42;;;;;;;14.32;9.45;;;;;;;18.82;100.00;95299.59;5058547;28;20053;-72
2022/06/27 05:55:10;;;;;;;14.40;9.98;;;;;;;18.95;100.00;95306.13;5053221;28;20106;-72
2022/06/27 05:57:38;;;;;;;12.32;9.10;;;;;;;19.03;100.00;95304.75;5044394;28;20064;-71
2022/06/27 06:00:08;;;;;;;26.00;9.93;;;;;;;19.09;100.00;95306.34;5054270;28;20060;-72
2022/06/27 06:02:39;;;;;;;15.37;8.17;;;;;;;19.10;100.00;95310.53;5066530;28;20097;-72
2022/06/27 06:05:12;;;;;;;16.83;9.13;;;;;;;19.14;100.00;95311.59;5051069;28;20042;-72
2022/06/27 06:07:42;;;;;;;9.25;7.75;;;;;;;19.29;100.00;95319.41;5052033;28;20048;-72
2022/06/27 06:10:13;;;;;;;11.80;8.13;;;;;;;19.33;100.00;95324.16;5043107;28;20057;-72
2022/06/27 06:12:53;;;;;;;13.93;8.10;;;;;;;19.48;100.00;95321.38;5068196;28;20040;-71
2022/06/27 06:15:21;;;;;;;14.20;7.55;;;;;;;19.54;100.00;95322.94;5065159;28;20079;-71
2022/06/27 06:17:49;;;;;;;13.10;8.38;;;;;;;19.63;100.00;95323.94;5070866;28;20043;-71
2022/06/27 06:20:17;;;;;;;12.70;8.20;;;;;;;19.65;100.00;95321.81;5053471;28;20078;-71
2022/06/27 06:22:45;;;;;;;14.05;7.85;;;;;;;19.82;100.00;95320.63;5067115;28;20064;-71
2022/06/27 06:25:12;;;;;;;8.93;6.68;;;;;;;19.93;100.00;95322.13;5049753;28;20633;-72
2022/06/27 06:27:40;;;;;;;10.00;7.15;;;;;;;19.93;100.00;95316.84;5052707;28;20738;-72
2022/06/27 06:30:08;;;;;;;12.25;8.10;;;;;;;20.07;100.00;95316.19;5066557;28;20089;-72
2022/06/27 06:32:37;;;;;;;9.70;6.65;;;;;;;20.15;100.00;95319.03;5048116;28;20040;-72
2022/06/27 06:35:05;;;;;;;9.43;6.97;;;;;;;20.26;100.00;95314.44;5043251;28;20153;-71
2022/06/27 06:37:32;;;;;;;10.63;7.32;;;;;;;20.42;100.00;95312.41;5068156;28;20066;-71
2022/06/27 06:39:59;;;;;;;10.65;7.72;;;;;;;20.55;100.00;95326.81;5066824;28;21502;-71
2022/06/27 06:42:27;;;;;;;9.95;7.80;;;;;;;20.68;100.00;95323.53;5051661;28;20120;-71
2022/06/27 06:45:20;;;;;;;11.35;7.60;;;;;;;20.76;100.00;95322.91;5033415;28;20161;-71
2022/06/27 06:48:02;;;;;;;14.95;8.27;;;;;;;20.78;100.00;95320.75;5041956;28;20190;-71
2022/06/27 06:50:31;;;;;;;10.65;7.82;;;;;;;20.91;100.00;95305.25;5052193;28;20048;-71
2022/06/27 06:52:58;;;;;;;10.90;7.55;;;;;;;21.12;100.00;95325.09;5064681;28;20048;-71
2022/06/27 06:55:26;;;;;;;7.63;6.38;;;;;;;21.02;100.00;95327.09;5031392;28;20053;-71
2022/06/27 06:57:54;;;;;;;11.90;7.07;;;;;;;21.10;100.00;95326.44;5063939;28;21387;-71
2022/06/27 07:00:21;;;;;;;10.57;6.88;;;;;;;20.98;100.00;95334.81;5067944;28;20151;-72
2022/06/27 07:02:50;;;;;;;11.88;7.07;;;;;;;21.16;100.00;95331.41;5047442;28;20043;-71
2022/06/27 07:05:17;;;;;;;10.13;6.88;;;;;;;21.25;100.00;95333.38;5048156;28;20044;-72
2022/06/27 07:07:50;;;;;;;12.27;6.47;;;;;;;21.28;100.00;95332.81;5062897;28;20106;-72
2022/06/27 07:10:19;;;;;;;10.38;7.78;;;;;;;21.55;100.00;95335.66;5046594;28;20040;-72
2022/06/27 07:12:46;;;;;;;8.38;6.50;;;;;;;21.75;100.00;95336.41;5063938;28;20036;-72
2022/06/27 07:15:14;;;;;;;11.20;6.43;;;;;;;21.84;100.00;95334.69;5058061;28;20033;-72
2022/06/27 07:17:43;;;;;;;11.82;5.53;;;;;;;22.03;100.00;95336.50;5056985;28;20040;-72
2022/06/27 07:20:11;;;;;;;10.15;5.35;;;;;;;22.02;100.00;95340.22;5064403;28;20036;-69
2022/06/27 07:22:39;;;;;;;7.32;5.30;;;;;;;22.13;97.36;95325.72;5070044;28;20064;-69
2022/06/27 07:25:06;;;;;;;9.65;5.53;;;;;;;22.31;97.84;95343.47;5043256;28;20867;-69
2022/06/27 07:27:34;;;;;;;15.10;5.38;;;;;;;22.42;96.36;95348.56;5036258;28;20044;-68
2022/06/27 07:30:09;;;;;;;6.97;5.25;;;;;;;22.65;96.10;95347.63;5060313;28;20540;-69
2022/06/27 07:32:40;;;;;;;7.90;5.05;;;;;;;22.66;92.71;95359.78;5050183;28;20521;-70
2022/06/27 07:35:11;;;;;;;9.35;5.60;;;;;;;22.65;92.96;95352.94;5062757;28;20716;-68
2022/06/27 07:37:48;;;;;;;7.40;5.65;;;;;;;22.77;91.35;95354.31;5068485;28;20044;-68
2022/06/27 07:40:20;;;;;;;7.65;4.72;;;;;;;22.96;92.06;95344.34;5063313;28;20040;-68
2022/06/27 07:42:49;;;;;;;11.35;5.85;;;;;;;23.30;90.86;95353.78;5044436;28;20048;-69
2022/06/27 07:45:24;;;;;;;11.23;5.13;;;;;;;23.32;89.40;95348.97;5063537;28;20468;-69
2022/06/27 07:47:54;;;;;;;12.15;5.43;;;;;;;23.14;91.28;95348.00;5057915;28;20052;-72
2022/06/27 07:50:39;;;;;;;6.63;5.75;;;;;;;23.36;91.38;95352.56;5062033;28;20778;-72
2022/06/27 07:53:13;;;;;;;10.15;5.05;;;;;;;23.36;89.30;95355.25;5044891;28;20075;-71
2022/06/27 07:55:49;;;;;;;11.32;5.93;;;;;;;23.72;90.03;95351.78;5046265;28;20044;-71
2022/06/27 07:58:19;;;;;;;16.45;6.07;;;;;;;23.80;87.43;95343.09;5050935;28;20056;-72
2022/06/27 08:00:48;;;;;;;5.85;4.70;;;;;;;23.77;86.44;95341.03;5061740;28;20049;-71
2022/06/27 08:06:05;;;;;;;7.43;4.68;;;;;;;24.08;85.83;95342.97;5056130;28;20052;-71
2022/06/27 08:08:33;;;;;;;8.88;5.43;;;;;;;24.29;81.67;95326.47;5058305;28;20036;-71
2022/06/27 08:11:00;;;;;;;10.13;5.53;;;;;;;24.33;79.47;95343.41;5041672;28;20048;-71
2022/06/27 08:13:28;;;;;;;6.43;5.25;;;;;;;24.20;78.88;95339.72;5039484;28;20074;-72
2022/06/27 08:15:55;;;;;;;11.82;5.97;;;;;;;24.59;78.69;95336.34;5056431;28;20445;-71
2022/06/27 08:18:23;;;;;;;9.80;4.75;;;;;;;24.80;78.97;95336.56;5062756;28;20048;-71
2022/06/27 08:20:50;;;;;;;8.70;5.22;;;;;;;25.23;77.72;95345.75;5062052;28;20050;-72
2022/06/27 08:23:18;;;;;;;6.72;4.68;;;;;;;25.32;76.03;95345.81;5057525;28;20122;-72
2022/06/27 08:25:47;;;;;;;8.68;4.68;;;;;;;25.31;73.20;95349.56;5060737;28;20051;-72
2022/06/27 08:28:15;;;;;;;13.50;5.15;;;;;;;25.43;73.24;95340.94;5061936;28;20637;-71
2022/06/27 08:30:44;;;;;;;9.13;4.95;;;;;;;25.36;73.75;95344.06;5073449;28;20429;-71
2022/06/27 08:33:12;;;;;;;5.00;4.30;;;;;;;25.63;72.12;95347.53;5068056;28;20708;-71
2022/06/27 08:35:40;;;;;;;8.43;5.07;;;;;;;25.47;71.39;95331.22;5046562;28;20055;-70
2022/06/27 08:38:08;;;;;;;7.43;5.03;;;;;;;25.35;70.20;95345.97;5065191;28;20048;-72
2022/06/27 08:40:35;;;;;;;5.18;4.28;;;;;;;25.27;71.22;95348.63;5046889;28;20044;-71
2022/06/27 08:43:02;;;;;;;5.35;4.43;;;;;;;25.41;70.95;95345.78;5060200;28;20048;-71
2022/06/27 08:45:30;;;;;;;7.13;4.90;;;;;;;25.96;73.22;95347.84;5061446;28;20044;-72
2022/06/27 08:48:06;;;;;;;8.77;4.38;;;;;;;26.39;68.46;95346.97;5047633;28;20102;-72
2022/06/27 08:50:35;;;;;;;9.80;5.47;;;;;;;26.84;66.30;95354.50;5071643;28;20129;-71
2022/06/27 08:53:03;;;;;;;7.57;4.28;;;;;;;26.83;62.01;95347.59;5037758;28;20060;-71
2022/06/27 08:55:33;;;;;;;4.07;3.55;;;;;;;26.80;63.57;95358.94;5035800;28;20106;-71
2022/06/27 08:58:10;;;;;;;4.75;3.80;;;;;;;26.62;61.64;95346.75;5037539;28;20126;-70
2022/06/27 09:00:40;;;;;;;8.45;5.05;;;;;;;26.23;63.74;95345.91;5063453;28;20447;-69
2022/06/27 09:03:08;;;;;;;5.07;4.05;;;;;;;26.42;64.02;95350.88;5055420;28;20148;-69
2022/06/27 09:05:36;;;;;;;5.18;3.40;;;;;;;26.82;62.57;95340.69;5059368;28;20033;-70
2022/06/27 09:08:05;;;;;;;4.60;3.53;;;;;;;27.37;62.30;95355.03;5058805;28;20542;-69
2022/06/27 09:10:39;;;;;;;9.02;4.20;;;;;;;27.73;57.50;95345.63;5038942;28;20052;-69
2022/06/27 09:13:12;;;;;;;4.18;3.60;;;;;;;27.95;56.31;95344.50;5048081;28;20564;-68
2022/06/27 09:15:44;;;;;;;3.53;3.05;;;;;;;28.24;50.24;95347.38;5077789;28;20045;-69
2022/06/27 09:18:13;;;;;;;5.35;3.05;;;;;;;28.26;47.80;95356.63;5074194;28;20440;-69
2022/06/27 09:20:46;;;;;;;4.50;3.05;;;;;;;28.00;50.17;95365.72;5055335;28;20434;-69
2022/06/27 09:23:44;;;;;;;4.75;3.38;;;;;;;27.54;52.58;95354.09;5059629;28;20047;-69
2022/06/27 09:26:15;;;;;;;5.47;3.13;;;;;;;26.98;54.51;95348.16;5044808;28;20045;-69
2022/06/27 09:28:45;;;;;;;4.07;2.63;;;;;;;26.83;56.14;95350.28;5050553;28;20047;-69
2022/06/27 09:31:27;;;;;;;6.25;3.13;;;;;;;27.18;56.47;95342.06;5050249;28;20114;-69
2022/06/27 09:34:02;;;;;;;5.93;3.53;;;;;;;27.62;54.54;95350.59;5048023;28;20047;-72
2022/06/27 09:36:33;;;;;;;11.38;3.50;;;;;;;27.93;51.14;95344.03;5038825;28;20037;-72
2022/06/27 09:39:02;;;;;;;4.60;3.33;;;;;;;27.86;51.85;95343.78;5047397;28;20124;-72
2022/06/27 09:41:33;;;;;;;7.00;3.15;;;;;;;27.75;49.03;95347.94;5039854;28;20143;-72
2022/06/27 09:44:10;;;;;;;6.05;2.92;;;;;;;27.58;47.51;95341.63;5031299;28;20150;-71
2022/06/27 09:46:42;;;;;;;4.97;2.67;;;;;;;27.54;48.68;95345.31;5052098;28;20133;-72
2022/06/27 09:49:14;;;;;;;5.05;2.80;;;;;;;27.59;48.79;95345.88;5035700;28;20111;-69
2022/06/27 09:51:42;;;;;;;9.98;2.92;;;;;;;27.97;49.57;95336.91;5035001;28;20116;-69
2022/06/27 09:54:22;;;;;;;3.05;2.50;;;;;;;28.60;49.76;95327.91;5036083;28;20518;-69
2022/06/27 09:56:50;;;;;;;8.60;2.88;;;;;;;29.27;44.56;95347.22;5041982;28;20155;-69
2022/06/27 09:59:18;;;;;;;5.63;2.30;;;;;;;29.50;42.89;95330.63;5035417;28;20502;-69
2022/06/27 10:01:45;;;;;;;5.18;2.45;;;;;;;29.81;40.39;95345.31;5047176;28;20044;-71
2022/06/27 10:04:13;;;;;;;3.13;2.40;;;;;;;29.49;41.79;95332.50;5048037;28;20045;-72
2022/06/27 10:06:41;;;;;;;4.82;3.15;;;;;;;29.66;43.42;95338.75;5048888;28;20052;-69
2022/06/27 10:09:13;;;;;;;3.20;2.63;;;;;;;29.63;42.70;95336.75;5047338;28;20087;-69
2022/06/27 10:11:40;;;;;;;3.10;2.60;;;;;;;29.49;44.46;95335.19;5047956;28;20586;-69
2022/06/27 10:14:12;;;;;;;8.48;3.45;;;;;;;29.55;43.94;95339.22;5054859;28;20056;-69
2022/06/27 10:16:58;;;;;;;6.23;3.33;;;;;;;29.29;44.00;95330.78;5053648;28;20126;-69
2022/06/27 10:19:28;;;;;;;6.22;3.55;;;;;;;28.54;44.13;95334.59;5057081;28;20474;-69
2022/06/27 10:21:56;;;;;;;6.97;2.90;;;;;;;28.48;44.66;95325.19;5047563;28;20049;-69
2022/06/27 10:24:29;;;;;;;3.53;2.92;;;;;;;28.52;48.80;95326.88;5049660;28;20059;-70
2022/06/27 10:26:59;;;;;;;4.07;2.72;;;;;;;28.70;46.14;95321.31;5068316;28;20033;-70
2022/06/27 10:29:29;;;;;;;3.10;2.40;;;;;;;29.06;42.79;95328.53;5042761;28;20060;-69
2022/06/27 10:31:57;;;;;;;4.18;3.05;;;;;;;29.20;44.12;95322.09;5043323;28;20055;-71
2022/06/27 10:34:40;;;;;;;7.30;2.47;;;;;;;29.42;41.24;95318.91;5064536;28;20105;-70
2022/06/27 10:37:19;;;;;;;3.40;1.90;;;;;;;29.33;39.29;95315.56;5059091;28;20633;-71
2022/06/27 10:40:07;;;;;;;2.58;2.33;;;;;;;29.01;39.48;95312.72;5068550;28;20032;-70
2022/06/27 10:42:54;;;;;;;6.25;2.00;;;;;;;29.01;40.63;95293.94;5020701;28;20058;-71
2022/06/27 10:45:21;;;;;;;3.05;2.70;;;;;;;29.41;40.14;95317.34;5051184;28;20044;-70
2022/06/27 10:47:49;;;;;;;2.88;2.33;;;;;;;29.80;39.80;95306.97;5066222;28;20078;-71
2022/06/27 10:50:19;;;;;;;4.15;2.17;;;;;;;30.40;38.54;95312.34;5068486;28;20080;-71
2022/06/27 10:52:46;;;;;;;2.38;2.08;;;;;;;30.73;38.58;95302.34;5066031;28;20059;-71
2022/06/27 10:55:24;;;;;;;4.18;2.80;;;;;;;30.89;38.35;95327.31;5047359;28;20052;-70
2022/06/27 10:57:57;;;;;;;3.97;2.13;;;;;;;31.36;38.11;95312.97;5068662;28;20044;-69
2022/06/27 11:00:43;;;;;;;2.78;2.03;;;;;;;31.64;34.87;95322.81;5054240;28;20044;-70
2022/06/27 11:03:22;;;;;;;2.75;1.70;;;;;;;31.52;34.12;95320.25;5051171;28;20471;-70
2022/06/27 11:05:58;;;;;;;2.50;1.90;;;;;;;31.25;35.34;95328.91;5048080;28;20055;-70
2022/06/27 11:08:27;;;;;;;2.63;1.90;;;;;;;30.84;37.39;95324.88;5061968;28;20040;-70
2022/06/27 11:10:54;;;;;;;2.58;1.75;;;;;;;30.74;35.90;95311.97;5065009;28;20032;-70
2022/06/27 11:13:38;;;;;;;5.00;2.75;;;;;;;30.29;40.42;95311.28;5068632;28;20113;-71
2022/06/27 11:16:07;;;;;;;4.45;3.08;;;;;;;29.73;42.31;95309.41;5056033;28;21866;-70
2022/06/27 11:18:46;;;;;;;6.95;3.20;;;;;;;29.34;42.96;95317.16;5070957;28;20468;-71
2022/06/27 11:21:15;;;;;;;5.93;3.65;;;;;;;28.94;44.36;95315.97;5078774;28;20054;-71
2022/06/27 11:23:56;;;;;;;3.42;3.00;;;;;;;28.59;44.11;95307.59;5065869;28;20414;-71
2022/06/27 11:26:31;;;;;;;3.45;3.15;;;;;;;28.43;44.36;95315.47;5065571;28;20068;-69
2022/06/27 11:32:03;;;;;;;4.85;3.08;;;;;;;27.91;47.65;95314.16;5065730;28;20051;-69
2022/06/27 11:34:38;;;;;;;6.40;3.17;;;;;;;27.81;47.42;95314.53;5044579;28;20508;-69
2022/06/27 11:37:12;;;;;;;3.47;2.85;;;;;;;27.97;46.34;95307.47;5066329;28;20032;-70
2022/06/27 11:39:39;;;;;;;5.63;2.55;;;;;;;28.38;49.92;95305.75;5060934;28;20521;-70
2022/06/27 11:42:11;;;;;;;3.70;2.95;;;;;;;28.81;47.44;95311.72;5051476;28;20048;-69
2022/06/27 11:45:01;;;;;;;4.10;3.38;;;;;;;29.10;44.53;95316.06;5076670;28;20040;-69
2022/06/27 11:47:28;;;;;;;3.92;2.70;;;;;;;29.41;45.67;95317.34;5070919;28;20032;-69
2022/06/27 11:50:03;;;;;;;5.47;2.55;;;;;;;29.83;41.06;95317.00;5074693;28;20048;-69